createdAt,value
2018-09-09T00:00:07.570Z,101490.00
2018-09-09T00:05:00.949Z,101488.00
2018-09-09T00:09:54.241Z,101490.00
2018-09-09T00:14:49.407Z,101495.00
2018-09-09T00:19:42.751Z,101499.00
2018-09-09T00:24:36.406Z,101492.00
2018-09-09T00:29:29.772Z,101491.00
2018-09-09T00:34:23.379Z,101490.00
2018-09-09T00:39:16.681Z,101483.00
2018-09-09T00:44:09.956Z,101491.00
2018-09-09T00:49:08.879Z,101482.00
2018-09-09T00:54:02.185Z,101484.00
2018-09-09T00:58:55.524Z,101488.00
2018-09-09T01:03:48.843Z,101482.00
2018-09-09T01:08:42.166Z,101479.00
2018-09-09T01:13:35.478Z,101476.00
2018-09-09T01:18:28.784Z,101472.00
2018-09-09T01:23:22.071Z,101461.00
2018-09-09T01:28:15.505Z,101448.00
2018-09-09T01:33:08.875Z,101458.00
2018-09-09T01:38:02.166Z,101468.00
2018-09-09T01:42:55.456Z,101481.00
2018-09-09T01:47:49.339Z,101496.00
2018-09-09T01:52:42.570Z,101500.00
2018-09-09T01:57:35.822Z,101490.00
2018-09-09T02:02:29.155Z,101504.00
2018-09-09T02:07:22.464Z,101497.00
2018-09-09T02:12:15.791Z,101492.00
2018-09-09T02:17:09.147Z,101486.00
2018-09-09T02:22:02.464Z,101475.00
2018-09-09T02:26:55.873Z,101475.00
2018-09-09T02:31:49.230Z,101461.00
2018-09-09T02:36:42.570Z,101452.00
2018-09-09T02:41:36.742Z,101461.00
2018-09-09T02:46:30.022Z,101475.00
2018-09-09T02:51:23.297Z,101492.00
2018-09-09T02:56:16.603Z,101496.00
2018-09-09T03:01:09.883Z,101504.00
2018-09-09T03:06:03.157Z,101497.00
2018-09-09T03:11:02.041Z,101503.00
2018-09-09T03:15:55.382Z,101509.00
2018-09-09T03:20:48.993Z,101503.00
2018-09-09T03:25:42.276Z,101494.00
2018-09-09T03:30:36.633Z,101504.00
2018-09-09T03:35:29.939Z,101501.00
2018-09-09T03:40:23.265Z,101487.00
2018-09-09T03:45:17.383Z,101483.00
2018-09-09T03:50:10.793Z,101481.00
2018-09-09T03:55:04.080Z,101474.00
2018-09-09T03:59:57.427Z,101466.00
2018-09-09T04:04:50.756Z,101468.00
2018-09-09T04:09:44.083Z,101463.00
2018-09-09T04:14:37.377Z,101469.00
2018-09-09T04:19:30.700Z,101465.00
2018-09-09T04:24:23.996Z,101484.00
2018-09-09T04:29:17.287Z,101486.00
2018-09-09T04:34:11.841Z,101485.00
2018-09-09T04:39:10.523Z,101485.00
2018-09-09T04:44:03.880Z,101506.00
2018-09-09T04:48:57.159Z,101511.00
2018-09-09T04:53:50.915Z,101513.00
2018-09-09T04:58:44.217Z,101523.00
2018-09-09T05:03:37.533Z,101522.00
2018-09-09T05:08:30.825Z,101525.00
2018-09-09T05:13:24.123Z,101527.00
2018-09-09T05:18:17.500Z,101530.00
2018-09-09T05:23:10.775Z,101515.00
2018-09-09T05:28:04.807Z,101525.00
2018-09-09T05:32:58.066Z,101530.00
2018-09-09T05:37:51.351Z,101526.00
2018-09-09T05:42:44.677Z,101528.00
2018-09-09T05:47:38.040Z,101539.00
2018-09-09T05:52:31.337Z,101541.00
2018-09-09T05:57:24.605Z,101537.00
2018-09-09T06:02:18.017Z,101542.00
2018-09-09T06:07:11.346Z,101540.00
2018-09-09T06:12:04.693Z,101543.00
2018-09-09T06:16:57.991Z,101548.00
2018-09-09T06:21:51.267Z,101552.00
2018-09-09T06:26:44.653Z,101559.00
2018-09-09T06:31:37.978Z,101565.00
2018-09-09T06:36:31.257Z,101573.00
2018-09-09T06:41:24.590Z,101567.00
2018-09-09T06:46:18.517Z,101568.00
2018-09-09T06:51:11.991Z,101569.00
2018-09-09T06:56:05.396Z,101565.00
2018-09-09T07:00:59.943Z,101565.00
2018-09-09T07:05:53.265Z,101565.00
2018-09-09T07:10:46.598Z,101560.00
2018-09-09T07:15:40.420Z,101562.00
2018-09-09T07:20:33.843Z,101559.00
2018-09-09T07:25:27.171Z,101551.00
2018-09-09T07:30:20.505Z,101557.00
2018-09-09T07:35:13.821Z,101561.00
2018-09-09T07:40:07.183Z,101568.00
2018-09-09T07:45:01.248Z,101577.00
2018-09-09T07:49:55.093Z,101570.00
2018-09-09T07:54:48.430Z,101581.00
2018-09-09T07:59:41.720Z,101581.00
2018-09-09T08:04:35.349Z,101582.00
2018-09-09T08:09:30.258Z,101577.00
2018-09-09T08:14:24.159Z,101573.00
2018-09-09T08:19:17.507Z,101574.00
2018-09-09T08:24:10.870Z,101561.00
2018-09-09T08:29:04.293Z,101561.00
2018-09-09T08:33:58.841Z,101556.00
2018-09-09T08:38:52.256Z,101571.00
2018-09-09T08:43:45.537Z,101579.00
2018-09-09T08:48:38.873Z,101579.00
2018-09-09T08:53:32.481Z,101574.00
2018-09-09T08:58:25.790Z,101575.00
2018-09-09T09:03:19.488Z,101568.00
2018-09-09T09:08:12.882Z,101573.00
2018-09-09T09:13:06.699Z,101567.00
2018-09-09T09:18:00.093Z,101560.00
2018-09-09T09:22:54.189Z,101568.00
2018-09-09T09:27:47.666Z,101570.00
2018-09-09T09:32:48.081Z,101569.00
2018-09-09T09:37:41.581Z,101565.00
2018-09-09T09:42:35.239Z,101568.00
2018-09-09T09:47:28.547Z,101560.00
2018-09-09T09:52:22.525Z,101560.00
2018-09-09T09:57:15.930Z,101560.00
2018-09-09T10:02:09.254Z,101564.00
2018-09-09T10:07:02.625Z,101569.00
2018-09-09T10:11:55.976Z,101573.00
2018-09-09T10:16:49.819Z,101570.00
2018-09-09T10:21:43.120Z,101579.00
2018-09-09T10:26:36.411Z,101577.00
2018-09-09T10:31:29.754Z,101576.00
2018-09-09T10:36:23.128Z,101580.00
2018-09-09T10:41:16.498Z,101577.00
2018-09-09T10:46:10.081Z,101567.00
2018-09-09T10:51:03.528Z,101561.00
2018-09-09T10:55:56.879Z,101567.00
2018-09-09T11:00:50.413Z,101563.00
2018-09-09T11:05:43.737Z,101544.00
2018-09-09T11:10:37.025Z,101540.00
2018-09-09T11:15:32.982Z,101541.00
2018-09-09T11:20:26.305Z,101551.00
2018-09-09T11:25:19.661Z,101552.00
2018-09-09T11:30:13.027Z,101545.00
2018-09-09T11:35:06.373Z,101540.00
2018-09-09T11:39:59.714Z,101544.00
2018-09-09T11:44:53.104Z,101541.00
2018-09-09T11:49:46.431Z,101539.00
2018-09-09T11:54:39.760Z,101527.00
2018-09-09T11:59:33.072Z,101518.00
2018-09-09T12:04:26.376Z,101521.00
2018-09-09T12:09:19.694Z,101515.00
2018-09-09T12:14:12.962Z,101524.00
2018-09-09T12:19:06.451Z,101518.00
2018-09-09T12:24:00.232Z,101513.00
2018-09-09T12:28:53.590Z,101503.00
2018-09-09T12:33:47.031Z,101509.00
2018-09-09T12:38:40.367Z,101501.00
2018-09-09T12:43:39.548Z,101495.00
2018-09-09T12:48:38.613Z,101492.00
2018-09-09T12:53:31.903Z,101496.00
2018-09-09T12:58:25.465Z,101499.00
2018-09-09T13:03:19.290Z,101490.00
2018-09-09T13:08:12.590Z,101499.00
2018-09-09T13:13:11.850Z,101486.00
2018-09-09T13:18:05.840Z,101492.00
2018-09-09T13:22:59.123Z,101486.00
2018-09-09T13:27:52.464Z,101475.00
2018-09-09T13:32:45.821Z,101477.00
2018-09-09T13:37:39.200Z,101484.00
2018-09-09T13:42:32.601Z,101474.00
2018-09-09T13:47:25.991Z,101469.00
2018-09-09T13:52:19.261Z,101474.00
2018-09-09T13:57:12.617Z,101473.00
2018-09-09T14:02:06.003Z,101462.00
2018-09-09T14:06:59.281Z,101463.00
2018-09-09T14:11:52.626Z,101460.00
2018-09-09T14:16:45.911Z,101457.00
2018-09-09T14:21:39.228Z,101442.00
2018-09-09T14:26:32.612Z,101443.00
2018-09-09T14:31:27.163Z,101446.00
2018-09-09T14:36:21.199Z,101438.00
2018-09-09T14:41:14.565Z,101443.00
2018-09-09T14:46:08.186Z,101437.00
2018-09-09T14:51:02.242Z,101436.00
2018-09-09T14:55:55.575Z,101441.00
2018-09-09T15:00:48.946Z,101442.00
2018-09-09T15:05:42.279Z,101439.00
2018-09-09T15:10:35.631Z,101438.00
2018-09-09T15:15:28.957Z,101434.00
2018-09-09T15:20:22.296Z,101434.00
2018-09-09T15:25:15.571Z,101427.00
2018-09-09T15:30:08.941Z,101433.00
2018-09-09T15:35:02.210Z,101431.00
2018-09-09T15:39:55.677Z,101429.00
2018-09-09T15:44:48.973Z,101428.00
2018-09-09T15:49:42.233Z,101429.00
2018-09-09T15:54:35.643Z,101427.00
2018-09-09T15:59:29.008Z,101423.00
2018-09-09T16:04:22.389Z,101416.00
2018-09-09T16:09:15.676Z,101414.00
2018-09-09T16:14:09.027Z,101422.00
2018-09-09T16:19:02.620Z,101430.00
2018-09-09T16:23:55.991Z,101430.00
2018-09-09T16:28:49.319Z,101420.00
2018-09-09T16:33:43.356Z,101433.00
2018-09-09T16:38:36.707Z,101426.00
2018-09-09T16:43:29.995Z,101429.00
2018-09-09T16:48:23.308Z,101430.00
2018-09-09T16:53:16.648Z,101436.00
2018-09-09T16:58:09.969Z,101434.00
2018-09-09T17:03:03.312Z,101432.00
2018-09-09T17:07:56.613Z,101431.00
2018-09-09T17:12:50.542Z,101432.00
2018-09-09T17:17:43.869Z,101436.00
2018-09-09T17:22:37.979Z,101436.00
2018-09-09T17:27:31.291Z,101437.00
2018-09-09T17:32:25.301Z,101438.00
2018-09-09T17:37:18.581Z,101437.00
2018-09-09T17:42:11.921Z,101439.00
2018-09-09T17:47:05.553Z,101446.00
2018-09-09T17:51:58.941Z,101444.00
2018-09-09T17:56:52.227Z,101457.00
2018-09-09T18:01:45.517Z,101455.00
2018-09-09T18:06:38.970Z,101453.00
2018-09-09T18:11:32.392Z,101453.00
2018-09-09T18:16:25.855Z,101458.00
2018-09-09T18:21:26.149Z,101459.00
2018-09-09T18:26:19.613Z,101458.00
2018-09-09T18:31:12.895Z,101460.00
2018-09-09T18:36:06.243Z,101459.00
2018-09-09T18:40:59.580Z,101461.00
2018-09-09T18:45:53.016Z,101463.00
2018-09-09T18:50:46.400Z,101462.00
2018-09-09T18:55:40.707Z,101470.00
2018-09-09T19:00:34.033Z,101469.00
2018-09-09T19:05:27.362Z,101472.00
2018-09-09T19:10:21.379Z,101474.00
2018-09-09T19:15:14.664Z,101476.00
2018-09-09T19:20:08.023Z,101475.00
2018-09-09T19:25:01.281Z,101482.00
2018-09-09T19:29:54.566Z,101489.00
2018-09-09T19:34:47.874Z,101492.00
2018-09-09T19:39:41.231Z,101486.00
2018-09-09T19:44:35.242Z,101492.00
2018-09-09T19:49:28.602Z,101497.00
2018-09-09T20:10:30.579Z,101494.00
2018-09-09T20:15:23.840Z,101497.00
2018-09-09T20:20:17.961Z,101497.00
2018-09-09T20:25:11.717Z,101501.00
2018-09-09T20:30:05.216Z,101498.00
2018-09-09T20:34:58.497Z,101507.00
2018-09-09T20:39:51.931Z,101509.00
2018-09-09T20:44:45.259Z,101518.00
2018-09-09T20:49:38.548Z,101511.00
2018-09-09T20:54:31.774Z,101511.00
2018-09-09T20:59:25.054Z,101516.00
2018-09-09T21:04:18.333Z,101516.00
2018-09-09T21:09:12.393Z,101519.00
2018-09-09T21:14:05.933Z,101520.00
2018-09-09T21:18:59.220Z,101523.00
2018-09-09T21:23:52.620Z,101515.00
2018-09-09T21:28:45.893Z,101518.00
2018-09-09T21:33:39.247Z,101515.00
2018-09-09T21:38:32.524Z,101509.00
2018-09-09T21:43:25.851Z,101503.00
2018-09-09T21:48:19.161Z,101508.00
2018-09-09T21:53:13.408Z,101506.00
2018-09-09T21:58:07.653Z,101501.00
2018-09-09T22:03:00.953Z,101513.00
2018-09-09T22:07:54.933Z,101504.00
2018-09-09T22:12:48.596Z,101499.00
2018-09-09T22:17:43.003Z,101497.00
2018-09-09T22:22:42.920Z,101492.00
2018-09-09T22:27:36.205Z,101487.00
2018-09-09T22:32:29.496Z,101490.00
2018-09-09T22:37:22.948Z,101489.00
2018-09-09T22:42:16.255Z,101483.00
2018-09-09T22:47:09.464Z,101478.00
2018-09-09T22:52:02.861Z,101488.00
2018-09-09T22:56:56.168Z,101485.00
2018-09-09T23:01:49.470Z,101487.00
2018-09-09T23:06:42.699Z,101480.00
2018-09-09T23:11:36.053Z,101474.00
2018-09-09T23:16:30.301Z,101477.00
2018-09-09T23:21:23.603Z,101474.00
2018-09-09T23:26:16.869Z,101472.00
2018-09-09T23:31:10.297Z,101469.00
2018-09-09T23:36:03.548Z,101460.00
2018-09-09T23:40:56.920Z,101459.00
2018-09-09T23:45:50.182Z,101456.00
2018-09-09T23:50:43.401Z,101457.00
2018-09-09T23:55:36.673Z,101459.00
